createdAt,value
2018-03-21T00:09:16.726Z,4
2018-03-21T00:19:16.607Z,5
2018-03-21T00:29:16.662Z,4
2018-03-21T00:39:16.669Z,3
2018-03-21T00:49:16.699Z,6
2018-03-21T00:59:16.689Z,4
2018-03-21T01:09:16.626Z,5
2018-03-21T01:19:16.673Z,8
2018-03-21T01:29:16.613Z,6
2018-03-21T01:39:16.687Z,4
2018-03-21T01:49:16.653Z,6
2018-03-21T01:59:16.711Z,6
2018-03-21T02:09:16.711Z,4
2018-03-21T02:19:16.693Z,5
2018-03-21T02:29:16.686Z,5
2018-03-21T02:39:16.772Z,5
2018-03-21T02:49:16.756Z,6
2018-03-21T02:59:17.219Z,8
2018-03-21T03:09:16.786Z,5
2018-03-21T03:19:16.713Z,6
2018-03-21T03:29:16.780Z,9
2018-03-21T03:39:16.760Z,11
2018-03-21T03:49:16.795Z,13
2018-03-21T03:59:16.773Z,9
2018-03-21T04:09:16.847Z,9
2018-03-21T04:19:17.310Z,7
2018-03-21T04:29:16.756Z,10
2018-03-21T04:39:16.827Z,8
2018-03-21T04:49:16.788Z,8
2018-03-21T04:59:16.872Z,14
2018-03-21T05:09:16.808Z,16
2018-03-21T05:19:16.840Z,12
2018-03-21T05:29:16.814Z,11
2018-03-21T05:39:16.902Z,13
2018-03-21T05:49:16.894Z,17
2018-03-21T05:59:16.786Z,22
2018-03-21T06:09:16.874Z,22
2018-03-21T06:19:16.815Z,18
2018-03-21T06:29:16.858Z,14
2018-03-21T06:39:16.943Z,19
2018-03-21T06:49:16.921Z,16
2018-03-21T06:59:16.937Z,14
2018-03-21T07:09:17.033Z,18
2018-03-21T07:19:16.952Z,20
2018-03-21T07:29:17.061Z,20
2018-03-21T07:39:17.000Z,24
2018-03-21T07:49:17.552Z,21
2018-03-21T07:59:17.110Z,23
2018-03-21T08:09:16.941Z,23
2018-03-21T08:19:16.980Z,14
2018-03-21T08:29:17.042Z,16
2018-03-21T08:39:17.107Z,14
